createdAt,value
2019-01-08T00:01:45.708Z,99596.03
2019-01-08T00:04:16.241Z,99591.60
2019-01-08T00:06:46.841Z,99582.86
2019-01-08T00:09:17.330Z,99578.53
2019-01-08T00:11:48.012Z,99563.86
2019-01-08T00:14:18.588Z,99550.95
2019-01-08T00:16:49.132Z,99546.63
2019-01-08T00:19:19.680Z,99545.12
2019-01-08T00:21:50.158Z,99538.05
2019-01-08T00:24:23.504Z,99540.64
2019-01-08T00:26:54.086Z,99533.93
2019-01-08T00:29:24.732Z,99530.27
2019-01-08T00:31:55.202Z,99517.72
2019-01-08T00:34:25.822Z,99506.29
2019-01-08T00:36:56.379Z,99502.69
2019-01-08T00:39:26.979Z,99495.77
2019-01-08T00:41:57.518Z,99486.47
2019-01-08T00:44:27.982Z,99477.59
2019-01-08T00:46:58.480Z,99470.02
2019-01-08T00:49:29.038Z,99458.59
2019-01-08T00:51:59.632Z,99453.09
2019-01-08T00:54:30.282Z,99450.19
2019-01-08T00:57:00.882Z,99443.46
2019-01-08T00:59:31.538Z,99436.62
2019-01-08T01:02:02.018Z,99423.20
2019-01-08T01:04:32.612Z,99418.20
2019-01-08T01:07:03.189Z,99410.58
2019-01-08T01:09:33.829Z,99405.27
2019-01-08T01:12:04.543Z,99403.39
2019-01-08T01:14:35.037Z,99388.97
2019-01-08T01:17:05.591Z,99385.09
2019-01-08T01:19:36.361Z,99379.53
2019-01-08T01:22:06.909Z,99378.59
2019-01-08T01:24:37.349Z,99368.42
2019-01-08T01:27:07.936Z,99363.84
2019-01-08T01:29:38.489Z,99350.00
2019-01-08T01:32:09.198Z,99335.94
2019-01-08T01:34:39.881Z,99336.99
2019-01-08T01:37:10.395Z,99326.67
2019-01-08T01:39:41.066Z,99320.23
2019-01-08T01:42:11.980Z,99318.05
2019-01-08T01:44:42.438Z,99310.12
2019-01-08T01:47:12.979Z,99302.13
2019-01-08T01:49:43.568Z,99294.13
2019-01-08T01:52:14.129Z,99284.46
2019-01-08T01:54:44.611Z,99275.25
2019-01-08T01:57:15.123Z,99259.73
2019-01-08T01:59:45.623Z,99254.56
2019-01-08T02:02:16.180Z,99245.11
2019-01-08T02:04:48.742Z,99233.66
2019-01-08T02:07:19.398Z,99224.67
2019-01-08T02:09:49.999Z,99216.30
2019-01-08T02:12:20.502Z,99199.27
2019-01-08T02:14:50.934Z,99197.27
2019-01-08T02:17:21.664Z,99192.55
2019-01-08T02:19:52.144Z,99178.05
2019-01-08T02:22:22.613Z,99169.64
2019-01-08T02:24:53.194Z,99169.19
2019-01-08T02:27:24.037Z,99163.33
2019-01-08T02:29:54.650Z,99154.69
2019-01-08T02:32:25.227Z,99146.41
2019-01-08T02:34:55.609Z,99136.73
2019-01-08T02:37:26.159Z,99136.60
2019-01-08T02:39:56.679Z,99127.33
2019-01-08T02:42:27.416Z,99122.38
2019-01-08T02:44:57.931Z,99114.14
2019-01-08T02:47:28.471Z,99104.09
2019-01-08T02:49:59.088Z,99091.60
2019-01-08T02:52:29.571Z,99089.56
2019-01-08T02:55:01.469Z,99077.14
2019-01-08T02:57:32.004Z,99073.55
2019-01-08T03:00:02.537Z,99065.31
2019-01-08T03:02:33.053Z,99058.59
2019-01-08T03:05:03.533Z,99043.08
2019-01-08T03:07:34.208Z,99037.48
2019-01-08T03:10:05.325Z,99025.66
2019-01-08T03:12:35.859Z,99015.61
2019-01-08T03:15:06.947Z,99007.75
2019-01-08T03:17:37.513Z,99001.39
2019-01-08T03:20:08.269Z,98998.34
2019-01-08T03:22:38.898Z,98987.55
2019-01-08T03:25:09.669Z,98982.48
2019-01-08T03:27:40.254Z,98975.98
2019-01-08T03:30:10.976Z,98974.97
2019-01-08T03:32:41.739Z,98959.45
2019-01-08T03:35:12.528Z,98954.38
2019-01-08T03:37:43.878Z,98950.95
2019-01-08T03:40:14.533Z,98941.02
2019-01-08T03:42:45.136Z,98926.80
2019-01-08T03:45:15.649Z,98923.88
2019-01-08T03:47:46.345Z,98916.77
2019-01-08T03:50:16.886Z,98911.50
2019-01-08T03:52:47.566Z,98909.86
2019-01-08T03:55:18.168Z,98904.05
2019-01-08T03:57:48.868Z,98897.93
2019-01-08T04:00:19.541Z,98885.72
2019-01-08T04:02:50.128Z,98878.57
2019-01-08T04:05:20.703Z,98877.83
2019-01-08T04:07:51.293Z,98862.78
2019-01-08T04:10:21.798Z,98858.44
2019-01-08T04:12:52.428Z,98849.80
2019-01-08T04:15:23.251Z,98842.77
2019-01-08T04:17:53.853Z,98839.31
2019-01-08T04:20:24.368Z,98843.55
2019-01-08T04:22:55.349Z,98830.43
2019-01-08T04:25:25.944Z,98817.94
2019-01-08T04:27:57.239Z,98814.73
2019-01-08T04:30:27.833Z,98806.06
2019-01-08T04:32:58.434Z,98797.80
2019-01-08T04:35:28.948Z,98788.63
2019-01-08T04:37:59.528Z,98779.45
2019-01-08T04:40:30.467Z,98779.70
2019-01-08T04:43:01.196Z,98772.31
2019-01-08T04:45:31.805Z,98768.23
2019-01-08T04:48:02.385Z,98760.59
2019-01-08T04:50:33.026Z,98748.88
2019-01-08T04:53:03.650Z,98738.91
2019-01-08T04:55:34.307Z,98734.97
2019-01-08T04:58:04.900Z,98729.88
2019-01-08T05:00:35.593Z,98723.38
2019-01-08T05:03:06.134Z,98720.04
2019-01-08T05:05:36.807Z,98713.05
2019-01-08T05:08:07.411Z,98706.69
2019-01-08T05:10:38.871Z,98699.65
2019-01-08T05:13:10.019Z,98686.67
2019-01-08T05:15:40.893Z,98681.02
2019-01-08T05:18:11.849Z,98679.39
2019-01-08T05:20:42.639Z,98673.38
2019-01-08T05:23:13.439Z,98663.45
2019-01-08T05:25:44.039Z,98662.91
2019-01-08T05:28:14.749Z,98665.36
2019-01-08T05:30:45.662Z,98658.08
2019-01-08T05:33:16.191Z,98654.27
2019-01-08T05:35:46.723Z,98649.19
2019-01-08T05:38:17.283Z,98649.34
2019-01-08T05:40:47.722Z,98647.30
2019-01-08T05:43:18.356Z,98640.41
2019-01-08T05:45:48.988Z,98635.19
2019-01-08T05:48:23.197Z,98632.89
2019-01-08T05:50:54.322Z,98625.54
2019-01-08T05:53:25.041Z,98619.91
2019-01-08T05:55:55.659Z,98624.27
2019-01-08T05:58:26.138Z,98616.73
2019-01-08T06:00:56.886Z,98617.23
2019-01-08T06:03:27.568Z,98616.60
2019-01-08T06:05:58.538Z,98608.69
2019-01-08T06:08:29.217Z,98606.66
2019-01-08T06:10:59.969Z,98608.55
2019-01-08T06:13:30.581Z,98600.77
2019-01-08T06:16:01.286Z,98594.12
2019-01-08T06:18:31.977Z,98594.54
2019-01-08T06:21:03.012Z,98590.95
2019-01-08T06:23:33.644Z,98583.45
2019-01-08T06:26:04.310Z,98580.11
2019-01-08T06:28:34.902Z,98572.99
2019-01-08T06:31:05.828Z,98564.21
2019-01-08T06:33:36.298Z,98568.16
2019-01-08T06:36:06.889Z,98566.50
2019-01-08T06:38:37.434Z,98565.08
2019-01-08T06:41:08.058Z,98557.31
2019-01-08T06:43:38.862Z,98561.25
2019-01-08T06:46:11.388Z,98550.31
2019-01-08T06:48:45.806Z,98547.23
2019-01-08T06:51:23.448Z,98552.86
2019-01-08T06:53:56.630Z,98546.26
2019-01-08T06:56:32.240Z,98541.01
2019-01-08T06:59:03.963Z,98541.68
2019-01-08T07:01:38.135Z,98540.17
2019-01-08T07:04:08.910Z,98539.91
2019-01-08T07:06:40.172Z,98534.09
2019-01-08T07:09:12.669Z,98532.95
2019-01-08T07:11:47.439Z,98530.90
2019-01-08T07:14:21.632Z,98527.86
2019-01-08T07:16:55.420Z,98528.61
2019-01-08T07:19:25.926Z,98519.95
2019-01-08T07:22:00.328Z,98514.24
2019-01-08T07:24:34.229Z,98511.47
2019-01-08T07:27:06.876Z,98502.28
2019-01-08T07:29:37.468Z,98492.35
2019-01-08T07:32:08.112Z,98488.94
2019-01-08T07:34:38.753Z,98483.17
2019-01-08T07:37:09.361Z,98473.25
2019-01-08T07:39:39.894Z,98471.57
2019-01-08T07:42:10.566Z,98469.66
2019-01-08T07:44:41.179Z,98472.81
2019-01-08T07:47:12.473Z,98473.95
2019-01-08T07:49:43.537Z,98459.41
2019-01-08T07:52:15.594Z,98453.27
2019-01-08T07:54:47.597Z,98445.37
2019-01-08T07:57:19.891Z,98437.34
2019-01-08T07:59:50.588Z,98425.73
2019-01-08T08:02:21.533Z,98425.84
2019-01-08T08:04:52.222Z,98429.03
2019-01-08T08:07:22.809Z,98413.22
2019-01-08T08:09:53.373Z,98415.87
2019-01-08T08:12:24.094Z,98404.25
2019-01-08T08:14:55.575Z,98397.24
2019-01-08T08:17:26.226Z,98386.26
2019-01-08T08:19:56.907Z,98382.70
2019-01-08T08:22:27.473Z,98388.28
2019-01-08T08:24:58.043Z,98381.12
2019-01-08T08:27:28.554Z,98378.98
2019-01-08T08:29:59.003Z,98374.27
2019-01-08T08:32:29.513Z,98361.63
2019-01-08T08:35:07.888Z,98364.81
2019-01-08T08:37:32.267Z,98367.21
2019-01-08T08:40:02.974Z,98368.74
2019-01-08T08:42:33.560Z,98366.19
2019-01-08T08:45:04.291Z,98360.30
2019-01-08T08:47:35.142Z,98367.53
2019-01-08T08:50:06.721Z,98358.67
2019-01-08T08:52:37.171Z,98362.80
2019-01-08T08:55:08.049Z,98356.59
2019-01-08T08:57:38.609Z,98358.09
2019-01-08T09:00:10.314Z,98354.73
2019-01-08T09:02:40.837Z,98353.72
2019-01-08T09:05:11.361Z,98348.63
2019-01-08T09:07:41.991Z,98346.23
2019-01-08T09:10:12.516Z,98338.64
2019-01-08T09:12:43.166Z,98333.48
2019-01-08T09:15:13.931Z,98335.54
2019-01-08T09:17:44.453Z,98330.48
2019-01-08T09:20:14.889Z,98330.05
2019-01-08T09:22:45.538Z,98329.17
2019-01-08T09:25:16.053Z,98323.27
2019-01-08T09:27:46.465Z,98311.75
2019-01-08T09:30:17.127Z,98309.62
2019-01-08T09:32:47.736Z,98306.09
2019-01-08T09:35:18.261Z,98295.93
2019-01-08T09:37:48.759Z,98292.80
2019-01-08T09:40:19.407Z,98288.69
2019-01-08T09:42:49.907Z,98292.76
2019-01-08T09:45:20.638Z,98275.30
2019-01-08T09:47:51.351Z,98276.45
2019-01-08T09:50:21.910Z,98271.09
2019-01-08T09:52:52.627Z,98269.58
2019-01-08T09:55:23.213Z,98258.89
2019-01-08T09:57:53.732Z,98252.00
2019-01-08T10:00:24.373Z,98246.98
2019-01-08T10:02:54.880Z,98248.95
2019-01-08T10:05:25.480Z,98246.02
2019-01-08T10:07:56.030Z,98226.13
2019-01-08T10:10:26.579Z,98228.45
2019-01-08T10:12:57.470Z,98220.94
2019-01-08T10:15:27.998Z,98215.86
2019-01-08T10:17:58.929Z,98216.89
2019-01-08T10:20:29.643Z,98214.70
2019-01-08T10:23:00.198Z,98209.75
2019-01-08T10:25:30.771Z,98201.84
2019-01-08T10:28:01.262Z,98196.66
2019-01-08T10:30:31.781Z,98198.41
2019-01-08T10:33:02.431Z,98186.59
2019-01-08T10:35:33.055Z,98194.17
2019-01-08T10:38:03.592Z,98189.45
2019-01-08T10:40:34.222Z,98175.17
2019-01-08T10:43:05.044Z,98165.68
2019-01-08T10:45:35.733Z,98165.36
2019-01-08T10:48:06.348Z,98149.83
2019-01-08T10:50:37.010Z,98149.11
2019-01-08T10:53:07.775Z,98137.20
2019-01-08T10:55:38.442Z,98127.60
2019-01-08T10:58:09.042Z,98126.53
2019-01-08T11:00:39.737Z,98117.27
2019-01-08T11:03:10.257Z,98110.03
2019-01-08T11:05:40.953Z,98106.47
2019-01-08T11:08:18.627Z,98097.94
2019-01-08T11:10:49.312Z,98091.81
2019-01-08T11:13:20.464Z,98088.58
2019-01-08T11:15:51.218Z,98087.73
2019-01-08T11:18:21.921Z,98077.48
2019-01-08T11:20:52.591Z,98077.31
2019-01-08T11:23:23.187Z,98078.73
2019-01-08T11:25:54.082Z,98066.23
2019-01-08T11:28:24.769Z,98061.62
2019-01-08T11:30:55.334Z,98069.45
2019-01-08T11:33:25.854Z,98068.30
2019-01-08T11:35:56.486Z,98057.30
2019-01-08T11:38:27.151Z,98061.45
2019-01-08T11:40:57.653Z,98055.47
2019-01-08T11:43:28.541Z,98059.28
2019-01-08T11:45:58.992Z,98054.28
2019-01-08T11:48:29.771Z,98046.14
2019-01-08T11:51:00.407Z,98042.34
2019-01-08T11:53:30.784Z,98039.73
2019-01-08T11:56:01.236Z,98037.43
2019-01-08T11:58:31.873Z,98035.37
2019-01-08T12:01:02.548Z,98030.90
2019-01-08T12:03:33.060Z,98022.75
2019-01-08T12:06:03.687Z,98016.17
2019-01-08T12:08:34.302Z,98010.08
2019-01-08T12:11:05.544Z,98005.64
2019-01-08T12:13:36.139Z,97993.95
2019-01-08T12:16:06.622Z,97994.97
2019-01-08T12:18:37.220Z,97989.55
2019-01-08T12:21:09.524Z,97979.88
2019-01-08T12:23:40.149Z,97980.39
2019-01-08T12:26:10.877Z,97969.81
2019-01-08T12:28:41.510Z,97962.73
2019-01-08T12:31:12.169Z,97961.07
2019-01-08T12:33:42.792Z,97951.48
2019-01-08T12:36:13.369Z,97948.80
2019-01-08T12:38:43.969Z,97945.46
2019-01-08T12:41:14.493Z,97933.77
2019-01-08T12:43:45.083Z,97937.61
2019-01-08T12:46:15.686Z,97930.66
2019-01-08T12:48:46.218Z,97924.18
2019-01-08T12:51:16.877Z,97917.48
2019-01-08T12:53:47.530Z,97917.94
2019-01-08T12:56:18.177Z,97913.80
2019-01-08T12:58:49.023Z,97908.09
2019-01-08T13:01:21.028Z,97916.20
2019-01-08T13:03:51.954Z,97912.58
2019-01-08T13:06:22.512Z,97907.67
2019-01-08T13:08:53.023Z,97897.27
2019-01-08T13:11:23.685Z,97903.50
2019-01-08T13:13:54.279Z,97899.53
2019-01-08T13:16:24.940Z,97891.34
2019-01-08T13:18:57.313Z,97891.68
2019-01-08T13:21:27.950Z,97882.89
2019-01-08T13:23:58.542Z,97882.25
2019-01-08T13:26:29.080Z,97881.09
2019-01-08T13:28:59.656Z,97875.55
2019-01-08T13:31:30.217Z,97874.56
2019-01-08T13:34:00.811Z,97871.27
2019-01-08T13:36:31.425Z,97869.36
2019-01-08T13:39:02.108Z,97864.79
2019-01-08T13:41:32.727Z,97854.72
2019-01-08T13:44:03.505Z,97848.02
2019-01-08T13:46:34.257Z,97851.16
2019-01-08T13:49:04.953Z,97842.81
2019-01-08T13:51:35.580Z,97844.26
2019-01-08T13:54:09.490Z,97840.62
2019-01-08T13:56:40.275Z,97835.66
2019-01-08T13:59:14.981Z,97826.39
2019-01-08T14:01:51.592Z,97815.70
2019-01-08T14:04:25.253Z,97810.14
2019-01-08T14:06:59.706Z,97813.36
2019-01-08T14:09:31.962Z,97808.23
2019-01-08T14:12:05.792Z,97799.28
2019-01-08T14:14:40.072Z,97808.55
2019-01-08T14:17:15.937Z,97808.86
2019-01-08T14:19:47.372Z,97811.58
2019-01-08T14:22:25.995Z,97807.34
2019-01-08T14:24:56.616Z,97811.11
2019-01-08T14:27:27.308Z,97812.69
2019-01-08T14:29:58.031Z,97801.12
2019-01-08T14:32:31.144Z,97795.37
2019-01-08T14:35:03.818Z,97795.59
2019-01-08T14:37:40.379Z,97791.39
2019-01-08T14:40:20.234Z,97786.73
2019-01-08T14:42:50.961Z,97773.19
2019-01-08T14:45:22.983Z,97776.19
2019-01-08T14:47:55.145Z,97766.91
2019-01-08T14:50:28.547Z,97755.92
2019-01-08T14:53:06.896Z,97746.73
2019-01-08T14:55:39.845Z,97740.33
2019-01-08T14:58:10.491Z,97734.55
2019-01-08T15:00:41.315Z,97742.75
2019-01-08T15:03:12.091Z,97725.96
2019-01-08T15:05:42.867Z,97725.30
2019-01-08T15:08:13.493Z,97724.73
2019-01-08T15:10:44.268Z,97731.07
2019-01-08T15:13:15.044Z,97724.05
2019-01-08T15:15:45.741Z,97721.59
2019-01-08T15:18:20.053Z,97724.84
2019-01-08T15:20:53.808Z,97716.36
2019-01-08T15:23:24.462Z,97713.08
2019-01-08T15:25:55.079Z,97715.47
2019-01-08T15:28:25.912Z,97710.66
2019-01-08T15:30:56.713Z,97710.86
2019-01-08T15:33:27.279Z,97703.97
2019-01-08T15:35:57.891Z,97707.63
2019-01-08T15:38:28.589Z,97701.33
2019-01-08T15:40:59.169Z,97697.11
2019-01-08T15:43:29.798Z,97694.85
2019-01-08T15:46:00.782Z,97690.94
2019-01-08T15:48:31.400Z,97682.88
2019-01-08T15:51:02.122Z,97688.30
2019-01-08T15:53:32.862Z,97685.23
2019-01-08T15:56:03.654Z,97680.43
2019-01-08T15:58:34.379Z,97680.94
2019-01-08T16:01:05.028Z,97672.77
2019-01-08T16:03:35.620Z,97679.95
2019-01-08T16:06:12.603Z,97676.42
2019-01-08T16:08:43.362Z,97672.12
2019-01-08T16:11:14.070Z,97669.56
2019-01-08T16:13:44.723Z,97676.95
2019-01-08T16:16:16.443Z,97669.37
2019-01-08T16:18:47.198Z,97665.06
2019-01-08T16:21:18.151Z,97662.51
2019-01-08T16:23:48.725Z,97657.78
2019-01-08T16:26:19.290Z,97654.84
2019-01-08T16:28:49.983Z,97648.92
2019-01-08T16:31:20.627Z,97654.84
2019-01-08T16:33:51.539Z,97652.20
2019-01-08T16:36:25.334Z,97650.54
2019-01-08T16:38:55.852Z,97648.06
2019-01-08T16:41:26.493Z,97635.38
2019-01-08T16:43:58.575Z,97644.40
2019-01-08T16:46:32.768Z,97639.67
2019-01-08T16:49:03.408Z,97643.20
2019-01-08T16:51:34.096Z,97633.14
2019-01-08T16:54:04.985Z,97639.28
2019-01-08T16:56:35.718Z,97636.51
2019-01-08T16:59:06.492Z,97629.89
2019-01-08T17:01:37.210Z,97627.97
2019-01-08T17:04:09.513Z,97634.36
2019-01-08T17:06:40.394Z,97616.37
2019-01-08T17:09:11.119Z,97622.00
2019-01-08T17:11:41.858Z,97623.28
2019-01-08T17:14:12.627Z,97623.16
2019-01-08T17:16:43.351Z,97623.00
2019-01-08T17:19:14.057Z,97627.14
2019-01-08T17:21:44.741Z,97624.50
2019-01-08T17:24:15.649Z,97619.61
2019-01-08T17:26:46.372Z,97625.84
2019-01-08T17:29:17.047Z,97601.39
2019-01-08T17:31:48.924Z,97620.06
2019-01-08T17:34:19.679Z,97619.52
2019-01-08T17:36:50.356Z,97620.78
2019-01-08T17:39:20.846Z,97622.29
2019-01-08T17:41:51.699Z,97621.78
2019-01-08T17:44:22.444Z,97617.40
2019-01-08T17:46:59.477Z,97616.51
2019-01-08T17:49:31.196Z,97619.79
2019-01-08T17:52:05.066Z,97615.37
2019-01-08T17:54:39.985Z,97615.59
2019-01-08T17:57:10.724Z,97612.14
2019-01-08T17:59:41.557Z,97616.78
2019-01-08T18:02:17.583Z,97613.84
2019-01-08T18:04:49.250Z,97608.95
2019-01-08T18:07:19.974Z,97612.78
2019-01-08T18:09:51.504Z,97605.90
2019-01-08T18:12:22.640Z,97616.42
2019-01-08T18:15:00.726Z,97609.17
2019-01-08T18:17:32.487Z,97610.54
2019-01-08T18:20:04.424Z,97617.61
2019-01-08T18:22:38.389Z,97612.81
2019-01-08T18:25:10.674Z,97616.09
2019-01-08T18:27:42.655Z,97614.00
2019-01-08T18:30:13.790Z,97615.36
2019-01-08T18:32:45.514Z,97611.95
2019-01-08T18:35:16.419Z,97610.17
2019-01-08T18:37:53.651Z,97611.23
2019-01-08T18:40:24.203Z,97609.06
2019-01-08T18:42:59.936Z,97610.34
2019-01-08T18:45:33.073Z,97613.23
2019-01-08T18:48:05.040Z,97611.14
2019-01-08T18:50:36.010Z,97607.90
2019-01-08T18:53:07.808Z,97620.76
2019-01-08T18:55:40.709Z,97614.84
2019-01-08T18:58:15.419Z,97611.31
2019-01-08T19:00:46.297Z,97603.65
2019-01-08T19:03:18.216Z,97611.61
2019-01-08T19:05:52.717Z,97608.28
2019-01-08T19:08:26.329Z,97612.20
2019-01-08T19:10:59.119Z,97611.51
2019-01-08T19:13:31.025Z,97605.42
2019-01-08T19:16:05.391Z,97607.48
2019-01-08T19:18:40.666Z,97597.84
2019-01-08T19:21:13.795Z,97602.56
2019-01-08T19:23:47.763Z,97592.82
2019-01-08T19:26:22.133Z,97590.27
2019-01-08T19:28:54.346Z,97594.56
2019-01-08T19:31:27.799Z,97599.67
2019-01-08T19:34:08.991Z,97590.27
2019-01-08T19:36:38.055Z,97594.27
2019-01-08T19:39:14.302Z,97591.70
2019-01-08T19:41:47.491Z,97592.13
2019-01-08T19:44:20.398Z,97594.04
2019-01-08T19:46:52.469Z,97594.04
2019-01-08T19:49:29.779Z,97593.18
2019-01-08T19:52:00.999Z,97596.12
2019-01-08T19:54:35.224Z,97580.19
2019-01-08T19:57:09.624Z,97588.70
2019-01-08T19:59:40.803Z,97586.45
2019-01-08T20:02:16.017Z,97586.23
2019-01-08T20:04:51.393Z,97585.03
2019-01-08T20:07:23.462Z,97573.53
2019-01-08T20:09:58.510Z,97577.70
2019-01-08T20:12:30.408Z,97573.88
2019-01-08T20:15:12.792Z,97578.02
2019-01-08T20:17:48.138Z,97575.45
2019-01-08T20:20:20.139Z,97576.02
2019-01-08T20:22:54.130Z,97576.43
2019-01-08T20:25:25.979Z,97574.81
2019-01-08T20:28:00.400Z,97570.98
2019-01-08T20:30:34.783Z,97577.65
2019-01-08T20:33:08.803Z,97568.31
2019-01-08T20:35:39.598Z,97574.70
2019-01-08T20:38:10.495Z,97573.59
2019-01-08T20:40:48.968Z,97570.22
2019-01-08T20:43:20.961Z,97563.06
2019-01-08T20:45:53.185Z,97572.98
2019-01-08T20:48:33.419Z,97563.69
2019-01-08T20:51:05.394Z,97569.77
2019-01-08T20:53:38.321Z,97561.33
2019-01-08T20:56:09.132Z,97559.55
2019-01-08T20:58:43.103Z,97557.57
2019-01-08T21:01:19.793Z,97558.93
2019-01-08T21:03:51.701Z,97551.42
2019-01-08T21:06:27.309Z,97541.50
2019-01-08T21:09:00.621Z,97547.27
2019-01-08T21:11:35.111Z,97553.36
2019-01-08T21:14:10.043Z,97552.08
2019-01-08T21:16:48.068Z,97543.52
2019-01-08T21:19:19.951Z,97544.48
2019-01-08T21:21:53.800Z,97551.46
2019-01-08T21:24:28.924Z,97550.49
2019-01-08T21:27:04.047Z,97550.49
2019-01-08T21:29:38.204Z,97545.45
2019-01-08T21:32:09.947Z,97549.30
2019-01-08T21:34:44.598Z,97546.81
2019-01-08T21:37:15.435Z,97546.42
2019-01-08T21:39:48.000Z,97540.34
2019-01-08T21:42:19.000Z,97544.18
2019-01-08T21:44:49.800Z,97545.84
2019-01-08T21:47:25.838Z,97537.79
2019-01-08T21:50:03.204Z,97542.40
2019-01-08T21:52:33.985Z,97536.43
2019-01-08T21:55:11.629Z,97537.70
2019-01-08T21:57:45.009Z,97540.66
2019-01-08T22:00:18.879Z,97535.93
2019-01-08T22:02:50.083Z,97534.96
2019-01-08T22:05:20.841Z,97543.05
2019-01-08T22:07:52.079Z,97540.73
2019-01-08T22:10:22.852Z,97542.31
2019-01-08T22:12:53.931Z,97531.59
2019-01-08T22:15:24.711Z,97545.18
2019-01-08T22:17:55.555Z,97556.52
2019-01-08T22:20:26.290Z,97560.00
2019-01-08T22:22:56.992Z,97558.25
2019-01-08T22:25:28.074Z,97552.17
2019-01-08T22:27:58.873Z,97557.13
2019-01-08T22:30:29.469Z,97564.37
2019-01-08T22:33:00.220Z,97563.16
2019-01-08T22:35:30.940Z,97559.48
2019-01-08T22:38:01.637Z,97566.98
2019-01-08T22:40:32.334Z,97562.69
2019-01-08T22:43:03.122Z,97559.16
2019-01-08T22:45:33.833Z,97562.24
2019-01-08T22:48:04.599Z,97565.02
2019-01-08T22:50:35.382Z,97569.13
2019-01-08T22:53:05.991Z,97580.27
2019-01-08T22:55:36.764Z,97572.05
2019-01-08T22:58:07.419Z,97578.81
2019-01-08T23:00:57.509Z,97580.36
2019-01-08T23:03:28.231Z,97587.22
2019-01-08T23:05:58.849Z,97592.76
2019-01-08T23:08:29.637Z,97588.30
2019-01-08T23:11:00.250Z,97595.36
2019-01-08T23:13:31.919Z,97596.00
2019-01-08T23:16:02.958Z,97596.64
2019-01-08T23:18:33.593Z,97598.34
2019-01-08T23:21:04.316Z,97595.19
2019-01-08T23:23:34.983Z,97598.94
2019-01-08T23:26:05.606Z,97605.83
2019-01-08T23:28:37.989Z,97599.41
2019-01-08T23:31:08.589Z,97600.77
2019-01-08T23:33:39.278Z,97605.66
2019-01-08T23:36:10.069Z,97603.53
2019-01-08T23:38:40.670Z,97612.03
2019-01-08T23:41:11.348Z,97605.18
2019-01-08T23:43:41.968Z,97608.92
2019-01-08T23:46:12.496Z,97610.79
2019-01-08T23:48:43.209Z,97607.91
2019-01-08T23:51:13.822Z,97607.26
2019-01-08T23:53:49.867Z,97609.00
2019-01-08T23:56:20.661Z,97611.56
2019-01-08T23:58:51.506Z,97604.02
